Time;durP1;ratioP1;P1;durP2;ratioP2;P2;SDS_P1;SDS_P2;PMS_P1;PMS_P2;Temp;Humidity;BMP_temperature;BMP_pressure;BME280_temperature;BME280_humidity;BME280_pressure;Samples;Min_cycle;Max_cycle;Signal;HPM_P1;HPM_P2
2023/03/16 00:02:06;;;;;;;6.72;2.55;;;5.60;92.90;;;;;;4937843;29;20594;-76
2023/03/16 00:04:36;;;;;;;4.65;2.28;;;5.70;92.90;;;;;;4938641;29;20213;-74
2023/03/16 00:07:05;;;;;;;7.38;3.08;;;5.70;92.90;;;;;;4938738;29;20171;-75
2023/03/16 00:09:31;;;;;;;6.82;2.90;;;5.70;93.00;;;;;;4938205;29;20254;-75
2023/03/16 00:11:58;;;;;;;9.43;3.00;;;5.60;93.00;;;;;;4936421;29;20632;-76
2023/03/16 00:14:24;;;;;;;6.25;2.75;;;5.70;93.10;;;;;;4936373;29;20654;-75
2023/03/16 00:16:50;;;;;;;8.88;2.88;;;5.70;93.10;;;;;;4937588;29;20175;-76
2023/03/16 00:19:16;;;;;;;5.88;2.67;;;5.60;93.20;;;;;;4936634;29;20632;-76
2023/03/16 00:21:41;;;;;;;7.35;2.90;;;5.70;93.20;;;;;;4936775;29;20175;-75
2023/03/16 00:24:07;;;;;;;7.65;2.80;;;5.70;93.30;;;;;;4937110;29;20299;-75
2023/03/16 00:26:33;;;;;;;6.32;2.65;;;5.70;93.30;;;;;;4935800;29;20191;-75
2023/03/16 00:28:59;;;;;;;6.97;2.60;;;5.70;93.40;;;;;;4938222;29;20207;-75
2023/03/16 00:31:24;;;;;;;9.32;2.63;;;5.70;93.40;;;;;;4936301;29;20183;-76
2023/03/16 00:33:50;;;;;;;9.38;2.70;;;5.70;93.40;;;;;;4936299;29;20229;-76
2023/03/16 00:36:16;;;;;;;8.52;2.70;;;5.60;93.50;;;;;;4937185;29;20563;-75
2023/03/16 00:38:47;;;;;;;6.53;3.13;;;5.60;93.50;;;;;;4937704;29;20175;-75
2023/03/16 00:41:14;;;;;;;6.25;2.70;;;5.60;93.60;;;;;;4936315;29;20367;-75
2023/03/16 00:43:41;;;;;;;14.52;3.28;;;5.60;93.60;;;;;;4938113;29;20179;-75
2023/03/16 00:46:10;;;;;;;7.95;2.83;;;5.60;93.60;;;;;;4920530;29;20187;-75
2023/03/16 00:48:41;;;;;;;5.55;2.40;;;5.60;93.60;;;;;;4938114;29;20183;-75
2023/03/16 00:51:14;;;;;;;8.80;2.92;;;5.70;93.70;;;;;;4937697;29;20167;-76
2023/03/16 00:53:42;;;;;;;13.30;2.95;;;5.60;93.70;;;;;;4936278;29;20246;-75
2023/03/16 00:56:08;;;;;;;7.50;3.00;;;5.60;93.80;;;;;;4935922;29;20623;-76
2023/03/16 00:58:36;;;;;;;6.07;2.67;;;5.60;93.80;;;;;;4936038;29;20326;-76
2023/03/16 01:01:03;;;;;;;9.25;3.10;;;5.60;93.80;;;;;;4937001;29;20238;-75
2023/03/16 01:03:29;;;;;;;10.93;3.15;;;5.60;93.90;;;;;;4935653;29;20187;-76
2023/03/16 01:05:58;;;;;;;8.25;2.67;;;5.60;94.00;;;;;;4936601;29;20192;-76
2023/03/16 01:08:29;;;;;;;5.88;2.90;;;5.50;94.00;;;;;;4936269;29;20172;-76
2023/03/16 01:10:55;;;;;;;8.32;3.13;;;5.60;94.10;;;;;;4936430;29;20179;-75
2023/03/16 01:13:21;;;;;;;6.80;2.95;;;5.60;94.10;;;;;;4936727;29;20230;-75
2023/03/16 01:15:50;;;;;;;6.18;2.83;;;5.60;94.20;;;;;;4919610;29;20323;-75
2023/03/16 01:18:16;;;;;;;9.23;3.30;;;5.60;94.20;;;;;;4937107;29;20323;-75
2023/03/16 01:20:49;;;;;;;4.80;2.80;;;5.60;94.20;;;;;;4936275;29;20179;-76
2023/03/16 01:23:16;;;;;;;6.25;2.95;;;5.60;94.30;;;;;;4935913;29;20191;-75
2023/03/16 01:25:42;;;;;;;7.70;3.20;;;5.60;94.30;;;;;;4935165;29;20497;-76
2023/03/16 01:28:09;;;;;;;5.85;2.85;;;5.70;94.40;;;;;;4919396;29;20198;-76
2023/03/16 01:30:35;;;;;;;6.78;3.00;;;5.70;94.50;;;;;;4935135;29;20224;-76
2023/03/16 01:33:01;;;;;;;6.35;3.30;;;5.70;94.60;;;;;;4935153;29;20698;-75
2023/03/16 01:35:28;;;;;;;8.38;3.38;;;5.70;94.60;;;;;;4936500;29;20187;-76
2023/03/16 01:37:53;;;;;;;9.95;3.40;;;5.60;94.60;;;;;;4934266;29;20194;-76
2023/03/16 01:40:23;;;;;;;8.93;3.30;;;5.70;94.70;;;;;;4920035;29;20179;-75
2023/03/16 01:42:59;;;;;;;7.50;3.00;;;5.60;94.80;;;;;;4936706;29;20189;-76
2023/03/16 01:45:57;;;;;;;8.10;3.25;;;5.60;94.90;;;;;;4919368;29;20190;-76
2023/03/16 01:48:25;;;;;;;7.15;2.88;;;5.60;95.00;;;;;;4934885;29;20266;-76
2023/03/16 01:50:52;;;;;;;6.05;3.45;;;5.60;95.00;;;;;;4934958;29;20191;-76
2023/03/16 01:53:21;;;;;;;8.05;3.10;;;5.60;95.10;;;;;;4934733;29;20219;-75
2023/03/16 01:55:48;;;;;;;7.78;3.13;;;5.60;95.20;;;;;;4936558;29;20201;-74
2023/03/16 01:58:15;;;;;;;5.38;3.17;;;5.60;95.30;;;;;;4950574;28;20235;-75
2023/03/16 02:00:41;;;;;;;10.70;3.47;;;5.60;95.30;;;;;;4934740;29;20744;-77
2023/03/16 02:03:17;;;;;;;10.05;3.60;;;5.60;95.40;;;;;;4920732;29;20197;-75
2023/03/16 02:06:05;;;;;;;6.53;3.70;;;5.60;95.50;;;;;;4935479;29;20624;-75
2023/03/16 02:08:34;;;;;;;14.38;4.15;;;5.60;95.50;;;;;;4935064;29;20262;-75
2023/03/16 02:11:01;;;;;;;12.77;4.03;;;5.60;95.70;;;;;;4936001;29;20266;-75
2023/03/16 02:13:39;;;;;;;8.10;4.20;;;5.60;95.80;;;;;;4935329;29;20212;-75
2023/03/16 02:16:07;;;;;;;7.80;3.78;;;5.60;95.90;;;;;;4919122;29;20635;-74
2023/03/16 02:18:34;;;;;;;13.57;4.28;;;5.50;95.90;;;;;;4934799;29;20608;-76
2023/03/16 02:21:20;;;;;;;14.45;4.50;;;5.50;95.90;;;;;;4934781;29;20171;-75
2023/03/16 02:23:47;;;;;;;9.95;4.60;;;5.60;96.00;;;;;;4934953;29;20179;-75
2023/03/16 02:26:27;;;;;;;8.63;4.55;;;5.60;96.10;;;;;;4934415;29;20274;-76
2023/03/16 02:29:10;;;;;;;10.55;4.30;;;5.60;96.10;;;;;;4919613;29;20203;-79
2023/03/16 02:31:37;;;;;;;9.02;4.50;;;5.60;96.20;;;;;;4936610;29;20267;-75
2023/03/16 02:34:05;;;;;;;10.63;4.43;;;5.50;96.20;;;;;;4919023;29;20572;-74
2023/03/16 02:36:33;;;;;;;12.10;4.90;;;5.60;96.60;;;;;;4935275;29;20188;-75
2023/03/16 02:38:59;;;;;;;9.93;5.00;;;5.50;96.30;;;;;;4919535;29;20619;-75
2023/03/16 02:41:26;;;;;;;9.88;4.68;;;5.60;96.40;;;;;;4919006;29;20199;-76
2023/03/16 02:44:14;;;;;;;11.35;4.50;;;5.60;96.40;;;;;;4934633;29;20489;-75
2023/03/16 02:46:44;;;;;;;11.65;4.40;;;5.60;96.40;;;;;;4935187;29;20171;-75
2023/03/16 02:49:25;;;;;;;9.18;4.85;;;5.60;96.50;;;;;;4938122;29;20548;-77
2023/03/16 02:51:51;;;;;;;10.80;4.43;;;5.60;96.50;;;;;;4938527;29;20277;-74
2023/03/16 02:54:17;;;;;;;10.00;4.93;;;5.60;96.50;;;;;;4938130;29;20618;-74
2023/03/16 02:56:43;;;;;;;8.18;4.15;;;5.60;96.50;;;;;;4939293;29;20183;-74
2023/03/16 02:59:11;;;;;;;8.90;4.68;;;5.60;96.50;;;;;;4953666;28;20258;-74
2023/03/16 03:01:37;;;;;;;9.48;4.63;;;5.60;96.50;;;;;;4938143;29;20663;-76
2023/03/16 03:04:04;;;;;;;11.48;4.53;;;5.60;96.80;;;;;;4938765;29;20222;-74
2023/03/16 03:06:31;;;;;;;11.70;4.72;;;5.60;96.50;;;;;;4938771;29;20183;-75
2023/03/16 03:08:58;;;;;;;12.20;4.28;;;5.60;96.50;;;;;;4938134;29;20287;-75
2023/03/16 03:11:25;;;;;;;10.52;4.53;;;5.60;96.60;;;;;;4937785;29;20274;-76
2023/03/16 03:13:51;;;;;;;9.25;4.45;;;5.60;96.60;;;;;;4937709;29;20742;-76
2023/03/16 03:16:21;;;;;;;11.25;4.70;;;5.60;96.60;;;;;;4922129;29;20175;-75
2023/03/16 03:18:48;;;;;;;9.40;4.63;;;5.60;96.60;;;;;;4937807;29;20273;-75
2023/03/16 03:21:15;;;;;;;9.85;4.97;;;5.60;96.60;;;;;;4938295;29;20655;-75
2023/03/16 03:23:45;;;;;;;10.38;4.25;;;5.60;96.70;;;;;;4939289;29;20184;-76
2023/03/16 03:26:13;;;;;;;7.97;4.32;;;5.60;96.70;;;;;;4937500;29;20191;-74
2023/03/16 03:28:40;;;;;;;10.38;4.43;;;5.60;96.80;;;;;;4937530;29;20658;-73
2023/03/16 03:31:11;;;;;;;7.85;4.55;;;5.70;96.80;;;;;;4937472;29;20269;-74
2023/03/16 03:33:37;;;;;;;11.18;4.60;;;5.70;96.80;;;;;;4922480;29;20214;-74
2023/03/16 03:36:03;;;;;;;8.30;4.25;;;5.70;96.90;;;;;;4937274;29;20540;-77
2023/03/16 03:38:34;;;;;;;7.88;4.20;;;5.70;96.90;;;;;;4938077;29;20180;-74
2023/03/16 03:41:00;;;;;;;11.23;4.70;;;5.70;96.90;;;;;;4937331;29;20576;-74
2023/03/16 03:43:30;;;;;;;9.13;4.38;;;5.70;96.90;;;;;;4922664;29;20198;-74
2023/03/16 03:45:57;;;;;;;8.25;4.10;;;5.60;97.00;;;;;;4937276;29;20282;-74
2023/03/16 03:48:23;;;;;;;9.05;4.40;;;5.60;97.00;;;;;;4939176;29;20262;-74
2023/03/16 03:50:49;;;;;;;7.63;4.25;;;5.70;97.10;;;;;;4936752;29;20270;-75
2023/03/16 03:53:38;;;;;;;11.70;4.40;;;5.70;97.10;;;;;;4936366;29;20227;-75
2023/03/16 03:56:36;;;;;;;9.00;4.10;;;5.60;97.10;;;;;;4937487;29;20566;-76
2023/03/16 03:59:03;;;;;;;6.63;3.78;;;5.70;97.20;;;;;;4936302;29;20227;-75
2023/03/16 04:01:49;;;;;;;10.57;4.20;;;5.60;97.60;;;;;;4937053;29;20239;-75
2023/03/16 04:04:15;;;;;;;8.60;4.47;;;5.60;97.30;;;;;;4936833;29;20222;-75
2023/03/16 04:06:41;;;;;;;7.55;4.07;;;5.60;97.40;;;;;;4936694;29;20195;-78
2023/03/16 04:09:07;;;;;;;13.00;4.18;;;5.60;97.50;;;;;;4921691;29;20183;-74
2023/03/16 04:11:33;;;;;;;9.13;3.95;;;5.60;97.50;;;;;;4937947;29;20175;-74
2023/03/16 04:13:59;;;;;;;12.23;4.50;;;5.60;97.50;;;;;;4936440;29;20222;-75
2023/03/16 04:16:25;;;;;;;8.43;4.13;;;5.60;97.60;;;;;;4936517;29;20215;-75
2023/03/16 04:18:53;;;;;;;12.60;4.18;;;5.60;97.60;;;;;;4937139;29;20199;-75
2023/03/16 04:21:21;;;;;;;8.20;4.22;;;5.60;97.70;;;;;;4936382;29;20241;-75
2023/03/16 04:23:48;;;;;;;9.38;4.45;;;5.60;97.70;;;;;;4937669;29;20179;-74
2023/03/16 04:26:15;;;;;;;8.07;4.18;;;5.60;97.70;;;;;;4936477;29;20639;-74
2023/03/16 04:28:43;;;;;;;7.30;4.07;;;5.60;97.80;;;;;;4921215;29;20206;-74
2023/03/16 04:31:12;;;;;;;9.07;3.78;;;5.60;97.90;;;;;;4936265;29;20235;-74
2023/03/16 04:33:42;;;;;;;14.43;4.55;;;5.60;97.90;;;;;;4936900;29;20698;-75
2023/03/16 04:36:08;;;;;;;6.22;3.92;;;5.50;97.90;;;;;;4952114;28;20179;-74
2023/03/16 04:38:36;;;;;;;9.93;4.45;;;5.50;97.90;;;;;;4936251;29;20604;-74
2023/03/16 04:41:04;;;;;;;7.13;4.30;;;5.50;98.00;;;;;;4920381;29;20190;-74
2023/03/16 04:43:34;;;;;;;9.23;4.60;;;5.50;98.10;;;;;;4920900;29;20258;-77
2023/03/16 04:46:05;;;;;;;9.32;4.40;;;5.50;98.10;;;;;;4937414;29;20642;-74
2023/03/16 04:48:33;;;;;;;10.80;4.10;;;5.60;98.20;;;;;;4935737;29;20372;-73
2023/03/16 04:51:02;;;;;;;10.52;4.32;;;5.50;98.20;;;;;;4920645;29;20654;-74
2023/03/16 04:53:31;;;;;;;7.00;4.18;;;5.50;98.20;;;;;;4936685;29;20211;-74
2023/03/16 04:56:01;;;;;;;7.93;4.68;;;5.50;98.30;;;;;;4936099;29;20686;-75
2023/03/16 04:58:28;;;;;;;11.00;4.70;;;5.50;98.40;;;;;;4935823;29;20599;-75
2023/03/16 05:00:56;;;;;;;8.98;4.10;;;5.50;98.50;;;;;;4920168;29;20195;-75
2023/03/16 05:03:26;;;;;;;8.27;4.10;;;5.50;98.50;;;;;;4921491;29;20175;-75
2023/03/16 05:05:52;;;;;;;8.65;4.35;;;5.50;98.60;;;;;;4919966;29;20598;-78
2023/03/16 05:08:18;;;;;;;9.57;4.63;;;5.50;98.60;;;;;;4919809;29;20195;-74
2023/03/16 05:10:47;;;;;;;8.98;4.57;;;5.40;98.60;;;;;;4935950;29;20238;-75
2023/03/16 05:13:13;;;;;;;9.00;4.97;;;5.50;98.80;;;;;;4935816;29;20211;-75
2023/03/16 05:15:40;;;;;;;15.15;4.70;;;5.40;98.70;;;;;;4935834;29;20223;-75
2023/03/16 05:18:15;;;;;;;7.93;4.70;;;5.40;98.80;;;;;;4936215;29;20180;-74
2023/03/16 05:20:41;;;;;;;9.98;4.43;;;5.40;98.80;;;;;;4919871;29;20198;-75
2023/03/16 05:23:07;;;;;;;7.95;4.60;;;5.50;99.00;;;;;;4935277;29;20522;-74
2023/03/16 05:25:39;;;;;;;13.20;4.97;;;5.50;99.00;;;;;;4937101;29;20176;-78
2023/03/16 05:28:07;;;;;;;11.82;5.30;;;5.50;99.00;;;;;;4936828;29;20206;-74
2023/03/16 05:30:44;;;;;;;8.98;4.53;;;5.50;99.10;;;;;;4935522;29;20618;-74
2023/03/16 05:33:14;;;;;;;13.18;5.32;;;5.50;99.20;;;;;;4951058;28;20262;-75
2023/03/16 05:35:41;;;;;;;7.68;4.55;;;5.50;99.20;;;;;;4919365;29;20198;-75
2023/03/16 05:38:10;;;;;;;9.30;5.15;;;5.50;99.40;;;;;;4934982;29;20187;-73
2023/03/16 05:40:39;;;;;;;8.50;4.38;;;5.50;99.40;;;;;;4934738;29;20352;-78
2023/03/16 05:43:15;;;;;;;11.05;5.28;;;5.40;99.40;;;;;;4935099;29;20191;-74
2023/03/16 05:45:47;;;;;;;12.82;5.18;;;5.40;99.50;;;;;;4934980;29;20182;-74
2023/03/16 05:48:16;;;;;;;10.65;5.38;;;5.50;99.60;;;;;;4935047;29;20183;-74
2023/03/16 05:50:45;;;;;;;11.32;5.70;;;5.50;99.70;;;;;;4934715;29;20179;-74
2023/03/16 05:53:14;;;;;;;10.00;5.75;;;5.40;99.70;;;;;;4935660;29;20223;-75
2023/03/16 05:55:40;;;;;;;8.27;5.10;;;5.50;99.90;;;;;;4919136;29;20592;-76
2023/03/16 05:58:10;;;;;;;14.20;5.40;;;5.50;99.90;;;;;;4919228;29;20265;-75
2023/03/16 06:00:38;;;;;;;6.45;4.65;;;5.50;99.90;;;;;;4935481;29;20221;-81
2023/03/16 06:03:20;;;;;;;9.93;5.00;;;5.50;99.90;;;;;;4935542;29;20179;-75
2023/03/16 06:05:46;;;;;;;11.32;5.20;;;5.50;99.90;;;;;;4934445;29;20651;-74
2023/03/16 06:08:14;;;;;;;10.00;4.97;;;5.50;99.90;;;;;;4934981;29;20270;-75
2023/03/16 06:10:47;;;;;;;9.48;5.30;;;5.50;99.90;;;;;;4919485;29;20187;-77
2023/03/16 06:13:14;;;;;;;8.68;4.80;;;5.50;99.90;;;;;;4935475;29;20242;-75
2023/03/16 06:15:40;;;;;;;12.55;5.45;;;5.50;99.90;;;;;;4935174;29;20638;-75
2023/03/16 06:18:06;;;;;;;7.15;4.50;;;5.50;99.90;;;;;;4918577;29;20201;-74
2023/03/16 06:20:32;;;;;;;8.30;5.38;;;5.50;99.90;;;;;;4919234;29;20584;-74
2023/03/16 06:22:58;;;;;;;10.15;5.40;;;5.50;99.90;;;;;;4921000;29;20707;-74
2023/03/16 06:25:25;;;;;;;9.50;5.10;;;5.50;99.90;;;;;;4924577;29;20221;-74
2023/03/16 06:27:51;;;;;;;11.85;5.55;;;5.50;99.90;;;;;;4938861;29;20191;-77
2023/03/16 06:30:18;;;;;;;7.75;5.20;;;5.40;99.90;;;;;;4922908;29;20660;-75
2023/03/16 06:32:44;;;;;;;8.55;5.30;;;5.50;99.90;;;;;;4938395;29;20226;-75
2023/03/16 06:35:11;;;;;;;9.82;5.13;;;5.50;99.90;;;;;;4922604;29;20330;-74
2023/03/16 06:37:41;;;;;;;9.02;5.05;;;5.50;99.90;;;;;;4938149;29;20195;-75
2023/03/16 06:40:23;;;;;;;11.00;5.40;;;5.50;99.90;;;;;;4938440;29;20227;-74
2023/03/16 06:42:49;;;;;;;11.95;5.63;;;5.50;99.90;;;;;;4939613;29;20186;-74
2023/03/16 06:45:20;;;;;;;7.43;5.10;;;5.50;99.90;;;;;;4939436;29;20191;-75
2023/03/16 06:47:46;;;;;;;7.70;4.85;;;5.50;99.90;;;;;;4923052;29;20624;-74
2023/03/16 06:50:12;;;;;;;10.55;5.28;;;5.50;99.90;;;;;;4923234;29;20191;-75
2023/03/16 06:52:40;;;;;;;8.45;4.90;;;5.50;99.90;;;;;;4938579;29;20529;-75
2023/03/16 06:55:07;;;;;;;11.63;5.63;;;5.60;99.90;;;;;;4938775;29;20578;-73
2023/03/16 06:57:35;;;;;;;6.18;4.65;;;5.50;99.90;;;;;;4922376;29;20199;-74
2023/03/16 07:00:03;;;;;;;8.88;5.22;;;5.50;99.90;;;;;;4937672;29;20238;-74
2023/03/16 07:02:28;;;;;;;7.95;4.70;;;5.60;99.90;;;;;;4921990;29;20201;-75
2023/03/16 07:04:54;;;;;;;10.43;4.70;;;5.60;99.90;;;;;;4922052;29;20184;-75
2023/03/16 07:07:20;;;;;;;10.45;5.00;;;5.60;99.90;;;;;;4938067;29;20191;-74
2023/03/16 07:09:47;;;;;;;7.60;4.53;;;5.60;99.90;;;;;;4939214;29;20238;-77
2023/03/16 07:12:13;;;;;;;8.80;4.95;;;5.60;99.90;;;;;;4938855;29;20198;-74
2023/03/16 07:14:38;;;;;;;7.72;5.20;;;5.60;99.90;;;;;;4939171;29;20655;-76
2023/03/16 07:17:05;;;;;;;10.80;5.00;;;5.60;99.90;;;;;;4921559;29;20198;-75
2023/03/16 07:19:31;;;;;;;13.65;4.90;;;5.60;99.90;;;;;;4937290;29;20247;-74
2023/03/16 07:22:01;;;;;;;9.52;4.95;;;5.60;99.90;;;;;;4921985;29;20282;-76
2023/03/16 07:24:31;;;;;;;8.00;4.80;;;5.70;99.90;;;;;;4937525;29;20187;-75
2023/03/16 07:26:57;;;;;;;8.20;4.78;;;5.60;99.90;;;;;;4921867;29;20234;-76
2023/03/16 07:29:28;;;;;;;8.02;4.80;;;5.70;99.90;;;;;;4922455;29;20226;-76
2023/03/16 07:31:55;;;;;;;11.15;5.22;;;5.70;99.90;;;;;;4937146;29;20183;-76
2023/03/16 07:34:26;;;;;;;8.23;5.10;;;5.70;99.90;;;;;;4936629;29;20222;-75
2023/03/16 07:36:56;;;;;;;10.05;5.05;;;5.70;99.90;;;;;;4921799;29;20266;-75
2023/03/16 07:39:24;;;;;;;9.05;5.13;;;5.80;99.90;;;;;;4936932;29;20296;-76
2023/03/16 07:41:54;;;;;;;10.98;5.05;;;5.80;99.90;;;;;;4922183;29;20207;-76
2023/03/16 07:44:36;;;;;;;8.70;4.47;;;5.80;99.90;;;;;;4937125;29;20644;-77
2023/03/16 07:47:02;;;;;;;9.10;5.28;;;5.80;99.90;;;;;;4936703;29;20254;-76
2023/03/16 07:49:30;;;;;;;8.18;5.00;;;5.80;99.90;;;;;;4937204;29;20190;-76
2023/03/16 07:51:57;;;;;;;9.88;5.03;;;5.90;99.90;;;;;;4937005;29;20296;-75
2023/03/16 07:54:30;;;;;;;7.85;4.45;;;5.80;99.90;;;;;;4937117;29;20216;-79
2023/03/16 07:56:55;;;;;;;10.45;5.40;;;5.90;99.90;;;;;;4937097;29;20606;-75
2023/03/16 07:59:37;;;;;;;12.60;5.00;;;5.90;99.90;;;;;;4922700;29;20234;-77
2023/03/16 08:02:03;;;;;;;12.15;5.28;;;5.90;99.90;;;;;;4936674;29;20234;-74
2023/03/16 08:04:30;;;;;;;8.75;4.75;;;5.90;99.90;;;;;;4952220;28;20191;-76
2023/03/16 08:06:59;;;;;;;10.27;5.00;;;6.00;99.90;;;;;;4936266;29;20187;-75
2023/03/16 08:09:29;;;;;;;7.57;4.93;;;6.00;99.90;;;;;;4936931;29;20183;-76
2023/03/16 08:11:55;;;;;;;7.35;5.00;;;6.00;99.90;;;;;;4937574;29;20183;-74
2023/03/16 08:14:22;;;;;;;9.50;5.35;;;6.10;99.90;;;;;;4921299;29;20309;-72
2023/03/16 08:17:06;;;;;;;9.55;5.63;;;6.10;99.90;;;;;;4936548;29;20254;-80
2023/03/16 08:19:33;;;;;;;9.90;5.05;;;6.20;99.90;;;;;;4921060;29;20678;-78
2023/03/16 08:22:01;;;;;;;11.52;5.22;;;6.20;99.90;;;;;;4937117;29;20194;-79
2023/03/16 08:24:30;;;;;;;13.48;4.60;;;6.20;99.90;;;;;;4935941;29;20187;-81
2023/03/16 08:26:58;;;;;;;9.68;4.85;;;6.20;99.90;;;;;;4935911;29;20184;-73
2023/03/16 08:29:25;;;;;;;9.07;4.90;;;6.20;99.90;;;;;;4920430;29;20714;-74
2023/03/16 08:31:57;;;;;;;9.80;5.18;;;6.20;99.90;;;;;;4935713;29;20187;-74
2023/03/16 08:34:30;;;;;;;7.40;4.57;;;6.20;99.90;;;;;;4935703;29;20215;-75
2023/03/16 08:36:56;;;;;;;10.68;5.28;;;6.20;99.90;;;;;;4936111;29;20195;-77
2023/03/16 08:39:22;;;;;;;9.25;5.50;;;6.10;99.90;;;;;;4936387;29;20199;-77
2023/03/16 08:41:48;;;;;;;11.02;5.20;;;6.10;99.90;;;;;;4920516;29;20398;-74
2023/03/16 08:44:25;;;;;;;13.90;5.05;;;6.10;99.90;;;;;;4936534;29;20245;-75
2023/03/16 08:46:51;;;;;;;9.85;5.00;;;6.20;99.90;;;;;;4919639;29;20199;-74
2023/03/16 08:49:19;;;;;;;8.55;5.45;;;6.20;99.90;;;;;;4935320;29;20180;-78
2023/03/16 08:51:48;;;;;;;7.07;5.18;;;6.20;99.90;;;;;;4921101;29;20522;-74
2023/03/16 08:54:14;;;;;;;7.45;5.10;;;6.20;99.90;;;;;;4935815;29;20211;-75
2023/03/16 08:56:40;;;;;;;8.82;4.75;;;6.20;99.90;;;;;;4935627;29;20487;-74
2023/03/16 08:59:06;;;;;;;9.23;5.72;;;6.20;99.90;;;;;;4937332;29;20227;-76
2023/03/16 09:01:32;;;;;;;8.70;5.03;;;6.20;99.90;;;;;;4936938;29;20207;-75
2023/03/16 09:03:59;;;;;;;8.52;5.07;;;6.20;99.90;;;;;;4939240;29;20274;-74
2023/03/16 09:06:26;;;;;;;9.43;5.97;;;6.20;99.90;;;;;;4936450;29;20242;-75
2023/03/16 09:08:52;;;;;;;10.20;5.90;;;6.20;99.90;;;;;;4936593;29;20193;-76
2023/03/16 09:11:20;;;;;;;7.90;4.55;;;6.20;99.90;;;;;;4937032;29;20233;-74
2023/03/16 09:13:46;;;;;;;9.90;4.97;;;6.20;99.90;;;;;;4937198;29;20221;-74
2023/03/16 09:16:14;;;;;;;7.80;5.20;;;6.30;99.90;;;;;;4936563;29;20624;-74
2023/03/16 09:18:40;;;;;;;7.65;4.72;;;6.30;99.90;;;;;;4937003;29;20242;-74
2023/03/16 09:21:09;;;;;;;8.43;4.95;;;6.30;99.90;;;;;;4936126;29;20183;-74
2023/03/16 09:23:38;;;;;;;6.35;4.38;;;6.30;99.90;;;;;;4936194;29;20225;-75
2023/03/16 09:26:06;;;;;;;10.13;5.72;;;6.30;99.90;;;;;;4935104;29;20175;-75
2023/03/16 09:28:34;;;;;;;12.95;5.28;;;6.30;99.90;;;;;;4936423;29;20219;-77
2023/03/16 09:31:01;;;;;;;8.23;5.22;;;6.20;99.90;;;;;;4919394;29;20354;-78
2023/03/16 09:33:28;;;;;;;7.82;4.93;;;6.20;99.90;;;;;;4936803;29;20261;-74
2023/03/16 09:35:56;;;;;;;7.88;4.78;;;6.20;99.90;;;;;;4936107;29;20179;-75
2023/03/16 09:38:25;;;;;;;7.70;5.15;;;6.20;99.90;;;;;;4936497;29;20176;-75
2023/03/16 09:41:06;;;;;;;13.02;7.20;;;6.20;99.90;;;;;;4935108;29;20195;-75
2023/03/16 09:44:03;;;;;;;8.00;5.15;;;6.20;99.90;;;;;;4936292;29;20260;-74
2023/03/16 09:46:47;;;;;;;10.73;5.30;;;6.20;99.90;;;;;;4936187;29;20167;-75
2023/03/16 09:49:18;;;;;;;10.48;5.35;;;6.30;99.90;;;;;;4935885;29;20721;-74
2023/03/16 09:51:55;;;;;;;12.18;5.32;;;6.30;99.90;;;;;;4934924;29;20275;-74
2023/03/16 09:54:31;;;;;;;8.75;4.80;;;6.40;99.90;;;;;;4935943;29;20202;-74
2023/03/16 09:56:58;;;;;;;9.18;5.55;;;6.40;99.90;;;;;;4935360;29;20218;-74
2023/03/16 09:59:24;;;;;;;11.35;5.70;;;6.50;99.90;;;;;;4933809;29;20695;-74
2023/03/16 10:01:59;;;;;;;8.38;5.15;;;6.60;99.90;;;;;;4919180;29;20206;-75
2023/03/16 10:04:34;;;;;;;7.63;5.45;;;6.60;99.90;;;;;;4935721;29;20174;-75
2023/03/16 10:07:09;;;;;;;7.53;4.65;;;6.60;99.90;;;;;;4935757;29;20181;-74
2023/03/16 10:09:57;;;;;;;12.32;5.88;;;6.60;99.90;;;;;;4935598;29;20222;-74
2023/03/16 10:12:34;;;;;;;11.63;5.35;;;6.60;99.90;;;;;;4935540;29;20163;-75
2023/03/16 10:15:13;;;;;;;11.80;6.65;;;6.60;99.90;;;;;;4935774;29;20186;-75
2023/03/16 10:17:51;;;;;;;10.82;5.70;;;6.60;99.90;;;;;;4936063;29;20171;-75
2023/03/16 10:20:21;;;;;;;11.35;5.72;;;6.60;99.90;;;;;;4935107;29;20618;-75
2023/03/16 10:22:51;;;;;;;10.93;5.53;;;6.70;99.90;;;;;;4935768;29;20275;-75
2023/03/16 10:25:26;;;;;;;10.02;5.55;;;6.70;99.90;;;;;;4935273;29;20186;-78
2023/03/16 10:27:53;;;;;;;7.78;5.30;;;6.70;99.90;;;;;;4935316;29;20267;-73
2023/03/16 10:30:27;;;;;;;10.85;5.63;;;6.60;99.90;;;;;;4935808;29;20239;-74
2023/03/16 10:32:54;;;;;;;9.65;6.10;;;6.70;99.90;;;;;;4935494;29;20167;-75
2023/03/16 10:35:35;;;;;;;14.20;5.90;;;6.60;99.90;;;;;;4935717;29;20179;-74
2023/03/16 10:38:01;;;;;;;11.35;6.50;;;6.60;99.90;;;;;;4936170;29;20166;-73
2023/03/16 10:40:32;;;;;;;10.90;5.93;;;6.70;99.90;;;;;;4935496;29;20628;-73
2023/03/16 10:43:05;;;;;;;13.13;6.25;;;6.70;99.90;;;;;;4934392;29;20187;-74
2023/03/16 10:45:33;;;;;;;12.18;5.97;;;6.70;99.90;;;;;;4935567;29;20193;-76
2023/03/16 10:48:20;;;;;;;11.32;5.55;;;6.70;99.90;;;;;;4935205;29;20242;-74
2023/03/16 10:50:56;;;;;;;9.13;5.35;;;6.70;99.90;;;;;;4935217;29;20175;-74
2023/03/16 10:53:35;;;;;;;7.72;5.18;;;6.70;99.90;;;;;;4935490;29;20325;-74
2023/03/16 10:56:10;;;;;;;8.13;5.18;;;6.80;99.90;;;;;;4935237;29;20171;-74
2023/03/16 10:58:41;;;;;;;8.93;5.70;;;6.70;99.90;;;;;;4935278;29;20713;-75
2023/03/16 11:01:17;;;;;;;12.30;5.82;;;6.80;99.90;;;;;;4936076;29;20626;-76
2023/03/16 11:03:49;;;;;;;10.88;5.70;;;6.80;99.90;;;;;;4935457;29;20175;-74
2023/03/16 11:06:35;;;;;;;9.23;5.10;;;6.80;99.90;;;;;;4935841;29;20570;-74
2023/03/16 11:09:18;;;;;;;10.70;5.32;;;6.80;99.90;;;;;;4936490;29;20230;-75
2023/03/16 11:11:48;;;;;;;16.58;6.32;;;6.90;99.90;;;;;;4937598;29;20230;-72
2023/03/16 11:14:18;;;;;;;12.60;5.35;;;6.90;99.90;;;;;;4938883;29;20219;-73
2023/03/16 11:16:58;;;;;;;12.27;6.80;;;6.90;99.90;;;;;;4936380;29;20429;-74
2023/03/16 11:19:33;;;;;;;8.50;5.35;;;7.00;99.90;;;;;;4938995;29;20175;-75
2023/03/16 11:22:18;;;;;;;10.05;5.82;;;6.90;99.90;;;;;;4938589;29;20163;-74
2023/03/16 11:25:04;;;;;;;10.73;5.85;;;7.00;99.90;;;;;;4939033;29;20209;-74
2023/03/16 11:27:55;;;;;;;10.40;5.88;;;7.00;99.90;;;;;;4938752;29;20182;-75
2023/03/16 11:30:29;;;;;;;11.10;5.18;;;7.00;99.90;;;;;;4938386;29;20167;-74
2023/03/16 11:32:59;;;;;;;9.52;5.43;;;7.00;99.90;;;;;;4938110;29;20218;-73
2023/03/16 11:35:43;;;;;;;8.45;4.50;;;7.10;99.90;;;;;;4938473;29;20687;-76
2023/03/16 11:38:16;;;;;;;10.15;5.72;;;7.10;99.90;;;;;;4938518;29;20193;-73
2023/03/16 11:41:02;;;;;;;11.10;5.13;;;7.10;99.90;;;;;;4938633;29;20186;-74
2023/03/16 11:43:51;;;;;;;8.95;5.10;;;7.20;99.90;;;;;;4938609;29;20222;-73
2023/03/16 11:46:39;;;;;;;10.40;5.57;;;7.30;99.90;;;;;;4938663;29;20178;-73
2023/03/16 11:49:30;;;;;;;9.13;4.95;;;7.30;99.90;;;;;;4938044;29;20171;-73
2023/03/16 11:52:16;;;;;;;9.68;5.20;;;7.30;99.90;;;;;;4938094;29;20186;-72
2023/03/16 11:55:09;;;;;;;7.75;5.18;;;7.30;99.90;;;;;;4936613;29;20357;-74
2023/03/16 11:57:49;;;;;;;7.45;4.57;;;7.40;99.90;;;;;;4938166;29;20172;-73
2023/03/16 12:00:46;;;;;;;8.27;4.80;;;7.40;99.90;;;;;;4920923;29;20237;-72
2023/03/16 12:06:20;;;;;;;8.73;5.00;;;7.50;99.90;;;;;;5826908;23;20344;-76
2023/03/16 12:08:56;;;;;;;10.10;4.85;;;7.50;99.90;;;;;;4952990;29;20218;-73
2023/03/16 12:11:43;;;;;;;12.93;4.53;;;7.60;99.90;;;;;;4955668;29;20190;-74
2023/03/16 12:14:35;;;;;;;9.30;4.93;;;7.50;99.90;;;;;;4956936;28;20716;-73
2023/03/16 12:17:22;;;;;;;10.75;5.03;;;7.70;99.90;;;;;;4955939;29;20674;-71
2023/03/16 12:20:06;;;;;;;8.55;4.60;;;7.70;99.90;;;;;;4955546;28;20171;-74
2023/03/16 12:22:40;;;;;;;11.13;4.90;;;7.80;99.90;;;;;;4956611;28;20626;-75
2023/03/16 12:25:31;;;;;;;8.57;4.80;;;7.90;99.90;;;;;;4957141;28;20166;-78
2023/03/16 12:28:01;;;;;;;10.15;4.45;;;7.90;99.90;;;;;;4949197;29;20199;-73
2023/03/16 12:30:49;;;;;;;9.50;4.53;;;8.00;99.90;;;;;;4956925;28;20205;-73
2023/03/16 12:33:18;;;;;;;5.85;3.70;;;8.00;99.90;;;;;;4957086;28;20236;-73
2023/03/16 12:36:16;;;;;;;9.95;4.60;;;8.10;99.90;;;;;;4955025;29;20210;-74
2023/03/16 12:38:42;;;;;;;8.90;4.63;;;8.20;99.90;;;;;;4937568;28;20205;-73
2023/03/16 12:41:29;;;;;;;10.68;5.07;;;8.20;99.90;;;;;;4956105;28;20529;-73
2023/03/16 12:44:19;;;;;;;10.52;4.63;;;8.30;99.90;;;;;;4956638;28;20217;-73
2023/03/16 12:46:58;;;;;;;7.07;4.15;;;8.40;99.90;;;;;;4955967;28;20595;-75
2023/03/16 12:49:25;;;;;;;7.30;4.60;;;8.50;99.90;;;;;;4956063;28;20194;-75
2023/03/16 12:52:03;;;;;;;7.32;4.45;;;8.50;99.90;;;;;;4954451;28;20188;-75
2023/03/16 12:54:29;;;;;;;7.53;4.80;;;8.50;99.90;;;;;;4955992;28;20214;-74
2023/03/16 12:57:07;;;;;;;8.32;4.70;;;8.60;99.90;;;;;;4954500;28;20265;-74
2023/03/16 12:59:45;;;;;;;8.60;4.25;;;8.60;99.90;;;;;;4954935;28;20179;-74
2023/03/16 13:02:20;;;;;;;9.20;4.47;;;8.70;99.90;;;;;;4955451;28;20295;-75
2023/03/16 13:04:54;;;;;;;6.50;4.60;;;8.70;99.90;;;;;;4954208;29;20178;-74
2023/03/16 13:07:24;;;;;;;8.10;4.65;;;8.70;99.90;;;;;;4955634;28;20708;-75
2023/03/16 13:10:12;;;;;;;6.75;4.40;;;8.70;99.90;;;;;;4956154;28;20182;-74
2023/03/16 13:12:40;;;;;;;6.22;4.50;;;8.70;99.90;;;;;;4955942;28;20171;-75
2023/03/16 13:15:22;;;;;;;8.75;4.45;;;8.70;99.90;;;;;;4954434;28;20635;-75
2023/03/16 13:18:16;;;;;;;8.65;4.50;;;8.70;99.90;;;;;;4955702;28;20201;-74